Terminal Aerodrome Forecast
Issued by NWS

Home | Current Version | Previous Version | Text Only | Print | Product List | Glossary On
Versions: 1 2 3 4 5 6 7 8 9 10 11 12 13 14 15 16 17 18 19 20 21 22 23 24 25 26 27
000
FTUS43 KLOT 282056 AAB
TAFORD
TAF AMD
KORD 282056Z 2821/2924 19019G30KT P6SM SCT045 BKN120
      TEMPO 2822/2823 4SM -TSRA OVC040CB
     FM290200 21017G28KT P6SM VCTS BKN060CB
      TEMPO 2903/2907 2SM TSRA OVC050CB
     FM290800 22013G22KT P6SM SCT040 OVC090
     FM292000 25014G23KT P6SM VCTS BKN030CB OVC060=

USA.gov is the U.S. government's official web portal to all federal, state and local government web resources and services.